Time;durP1;ratioP1;P1;durP2;ratioP2;P2;SDS_P1;SDS_P2;PMS_P1;PMS_P2;Temp;Humidity;BMP_temperature;BMP_pressure;BME280_temperature;BME280_humidity;BME280_pressure;Samples;Min_cycle;Max_cycle;Signal;HPM_P1;HPM_P2
2021/08/25 00:01:45;;;;;;;12.87;11.57;;;15.70;99.90;;;15.58;90.38;98768.88;5067612;28;20634;-79
2021/08/25 00:04:14;;;;;;;15.20;11.50;;;15.70;99.90;;;15.56;88.63;98770.00;5046336;28;20664;-79
2021/08/25 00:06:43;;;;;;;16.97;11.90;;;15.70;99.90;;;15.50;89.57;98770.47;5067903;28;20631;-79
2021/08/25 00:09:11;;;;;;;14.37;12.87;;;15.60;99.90;;;15.47;90.33;98770.69;5063231;28;20685;-79
2021/08/25 00:11:40;;;;;;;14.07;12.60;;;15.60;99.90;;;15.48;89.03;98771.53;5061893;28;21177;-79
2021/08/25 00:14:10;;;;;;;14.63;12.83;;;15.60;99.90;;;15.47;89.95;98764.56;5079606;28;20615;-79
2021/08/25 00:16:38;;;;;;;13.50;12.13;;;15.60;99.90;;;15.45;88.77;98755.97;5050616;28;21142;-79
2021/08/25 00:19:06;;;;;;;14.43;12.37;;;15.50;99.90;;;15.41;90.91;98750.13;5081631;28;21183;-79
2021/08/25 00:21:36;;;;;;;14.13;12.03;;;15.50;99.90;;;15.39;89.67;98753.81;5065201;28;20659;-79
2021/08/25 00:24:05;;;;;;;13.30;11.93;;;15.50;99.90;;;15.38;90.07;98745.13;5065540;28;20638;-79
2021/08/25 00:26:33;;;;;;;13.87;12.37;;;15.50;99.90;;;15.36;89.87;98754.06;5053437;28;20623;-79
2021/08/25 00:29:02;;;;;;;12.97;11.63;;;15.50;99.90;;;15.35;91.40;98749.75;5052209;28;20761;-79
2021/08/25 00:31:32;;;;;;;14.23;12.73;;;15.50;99.90;;;15.34;90.50;98740.22;5069506;28;20626;-79
2021/08/25 00:34:01;;;;;;;13.60;12.20;;;15.40;99.90;;;15.29;89.36;98735.31;5061508;28;20626;-79
2021/08/25 00:36:29;;;;;;;15.97;12.00;;;15.40;99.90;;;15.25;91.00;98733.84;5062617;28;20623;-79
2021/08/25 00:38:58;;;;;;;13.77;12.30;;;15.40;99.90;;;15.24;91.35;98733.97;5064649;28;20618;-79
2021/08/25 00:41:27;;;;;;;14.23;12.70;;;15.30;99.90;;;15.20;91.84;98737.81;5080532;28;20635;-79
2021/08/25 00:43:56;;;;;;;13.60;12.20;;;15.30;99.90;;;15.20;91.07;98740.44;5082357;28;20728;-79
2021/08/25 00:46:26;;;;;;;14.03;12.23;;;15.30;99.90;;;15.18;92.18;98750.19;5058421;28;20607;-79
2021/08/25 00:48:56;;;;;;;15.77;12.73;;;15.30;99.90;;;15.17;92.40;98745.91;5067548;28;20658;-79
2021/08/25 00:51:25;;;;;;;15.10;13.43;;;15.20;99.90;;;15.18;91.70;98737.06;5046351;28;20719;-79
2021/08/25 00:53:55;;;;;;;15.60;13.83;;;15.20;99.90;;;15.21;91.42;98731.56;5077298;28;20622;-79
2021/08/25 00:56:26;;;;;;;14.20;12.20;;;15.30;99.90;;;15.21;92.24;98732.41;5063154;28;21157;-79
2021/08/25 00:58:55;;;;;;;15.50;13.10;;;15.30;99.90;;;15.20;91.44;98724.66;5070055;28;20634;-79
2021/08/25 01:01:38;;;;;;;14.50;12.80;;;15.30;99.90;;;15.18;91.41;98726.56;5059996;28;20663;-79
2021/08/25 01:04:17;;;;;;;14.43;12.90;;;15.30;99.90;;;15.15;92.44;98726.75;5066026;28;20681;-79
2021/08/25 01:06:49;;;;;;;14.90;12.50;;;15.20;99.90;;;15.13;92.36;98724.25;5083352;28;20654;-79
2021/08/25 01:09:19;;;;;;;14.40;12.50;;;15.20;99.90;;;15.09;90.82;98716.72;5056213;28;20656;-79
2021/08/25 01:11:48;;;;;;;14.53;12.00;;;15.20;99.90;;;15.06;91.35;98721.38;5063182;28;20730;-79
2021/08/25 01:14:17;;;;;;;16.73;13.40;;;15.10;99.90;;;15.02;92.68;98710.25;5063986;28;20622;-79
2021/08/25 01:16:48;;;;;;;14.27;12.77;;;15.10;99.90;;;15.01;91.65;98707.75;5075986;28;20728;-79
2021/08/25 01:19:18;;;;;;;15.30;11.97;;;15.10;99.90;;;15.00;92.68;98701.66;5066677;28;20646;-79
2021/08/25 01:21:49;;;;;;;14.10;12.50;;;15.10;99.90;;;14.97;91.74;98706.31;5058308;28;20633;-79
2021/08/25 01:24:19;;;;;;;14.90;12.50;;;15.10;99.90;;;14.95;92.42;98714.31;5064571;28;20634;-79
2021/08/25 01:26:53;;;;;;;13.37;11.80;;;15.10;99.90;;;14.95;93.38;98711.69;5070598;28;21174;-79
2021/08/25 01:29:26;;;;;;;16.10;13.10;;;15.00;99.90;;;14.94;92.55;98717.88;5068008;28;20666;-79
2021/08/25 01:31:56;;;;;;;15.50;12.00;;;15.10;99.90;;;14.93;92.89;98716.22;5069994;28;20625;-79
2021/08/25 01:34:24;;;;;;;15.53;13.10;;;15.00;99.90;;;14.96;93.05;98715.97;5061088;28;20699;-79
2021/08/25 01:36:55;;;;;;;15.00;12.57;;;15.10;99.90;;;14.90;92.82;98715.59;5067998;28;20621;-79
2021/08/25 01:39:25;;;;;;;15.40;13.03;;;15.00;99.90;;;14.89;92.31;98713.94;5053589;28;20622;-79
2021/08/25 01:41:53;;;;;;;14.80;12.83;;;15.00;99.90;;;14.87;92.36;98714.06;5067936;28;20638;-79
2021/08/25 01:44:22;;;;;;;13.70;12.10;;;15.00;99.90;;;14.87;91.99;98710.56;5052093;28;21327;-79
2021/08/25 01:46:52;;;;;;;14.17;12.13;;;15.00;99.90;;;14.87;92.68;98702.69;5048992;28;20688;-79
2021/08/25 01:49:20;;;;;;;16.17;12.87;;;15.00;99.90;;;14.85;92.18;98705.44;5063632;28;20666;-79
2021/08/25 01:51:49;;;;;;;16.43;13.10;;;15.00;99.90;;;14.80;92.32;98707.56;5064863;28;21168;-79
2021/08/25 01:54:17;;;;;;;13.33;11.83;;;14.90;99.90;;;14.78;93.33;98706.03;5066049;28;20622;-79
2021/08/25 01:56:46;;;;;;;14.83;12.67;;;14.90;99.90;;;14.75;92.50;98707.09;5068293;28;20611;-79
2021/08/25 01:59:15;;;;;;;15.33;13.40;;;14.90;99.90;;;14.70;93.20;98706.59;5067678;28;20677;-79
2021/08/25 02:01:44;;;;;;;16.83;13.77;;;14.90;99.90;;;14.70;93.33;98703.13;5067488;28;20638;-79
2021/08/25 02:04:14;;;;;;;16.00;13.23;;;14.80;99.90;;;14.66;92.97;98710.41;5078693;28;20628;-79
2021/08/25 02:06:42;;;;;;;13.73;12.10;;;14.80;99.90;;;14.64;93.42;98704.44;5070605;28;21009;-79
2021/08/25 02:09:11;;;;;;;13.87;12.40;;;14.80;99.90;;;14.65;92.84;98718.41;5082561;28;20673;-79
2021/08/25 02:11:40;;;;;;;15.73;13.03;;;14.80;99.90;;;14.63;94.19;98713.25;5065157;28;20630;-79
2021/08/25 02:14:09;;;;;;;15.27;13.67;;;14.80;99.90;;;14.63;93.81;98708.00;5063830;28;20618;-79
2021/08/25 02:16:37;;;;;;;14.10;12.27;;;14.70;99.90;;;14.66;92.92;98712.22;5069010;28;21252;-79
2021/08/25 02:19:06;;;;;;;15.30;13.70;;;14.80;99.90;;;14.59;92.78;98709.19;5063943;28;20634;-79
2021/08/25 02:21:36;;;;;;;16.03;14.13;;;14.70;99.90;;;14.57;94.22;98704.16;5067420;28;20711;-79
2021/08/25 02:24:05;;;;;;;15.50;13.37;;;14.70;99.90;;;14.57;93.15;98705.00;5065344;28;20622;-79
2021/08/25 02:26:34;;;;;;;15.83;14.07;;;14.70;99.90;;;14.54;93.59;98701.75;5049839;28;20652;-79
2021/08/25 02:29:02;;;;;;;17.20;15.37;;;14.70;99.90;;;14.53;93.90;98702.72;5066381;28;20677;-79
2021/08/25 02:31:31;;;;;;;17.30;14.10;;;14.70;99.90;;;14.50;94.14;98701.16;5052706;28;20614;-79
2021/08/25 02:34:00;;;;;;;16.90;14.67;;;14.60;99.90;;;14.44;94.32;98695.53;5067539;28;20623;-79
2021/08/25 02:36:28;;;;;;;17.63;14.27;;;14.60;99.90;;;14.43;94.10;98684.19;5066499;28;21575;-79
2021/08/25 02:38:58;;;;;;;15.57;13.87;;;14.60;99.90;;;14.41;94.68;98688.72;5051211;28;20626;-79
2021/08/25 02:41:27;;;;;;;15.83;13.07;;;14.50;99.90;;;14.37;93.63;98678.56;5051889;28;20621;-79
2021/08/25 02:43:56;;;;;;;15.93;13.90;;;14.50;99.90;;;14.36;93.77;98682.16;5075783;28;20631;-79
2021/08/25 02:46:25;;;;;;;17.63;14.20;;;14.50;99.90;;;14.34;94.00;98677.00;5079950;28;21089;-79
2021/08/25 02:48:53;;;;;;;15.97;13.80;;;14.50;99.90;;;14.35;94.55;98672.59;5081872;28;20663;-79
2021/08/25 02:51:22;;;;;;;15.53;13.43;;;14.50;99.90;;;14.33;94.37;98672.69;5066251;28;20665;-79
2021/08/25 02:53:50;;;;;;;13.97;12.47;;;14.50;99.90;;;14.31;94.97;98671.13;5061832;28;20701;-79
2021/08/25 02:56:20;;;;;;;14.77;13.17;;;14.40;99.90;;;14.29;94.67;98673.03;5067461;28;20737;-79
2021/08/25 02:58:49;;;;;;;18.57;14.90;;;14.40;99.90;;;14.30;94.88;98675.56;5062775;28;20613;-79
2021/08/25 03:01:17;;;;;;;14.17;12.67;;;14.40;99.90;;;14.28;94.30;98664.34;5080248;28;20626;-79
2021/08/25 03:03:47;;;;;;;15.80;14.07;;;14.40;99.90;;;14.27;94.49;98661.84;5064275;28;20636;-79
2021/08/25 03:06:15;;;;;;;16.87;14.10;;;14.40;99.90;;;14.24;94.11;98662.06;5080652;28;21256;-79
2021/08/25 03:08:44;;;;;;;17.23;13.87;;;14.40;99.90;;;14.23;95.11;98658.56;5067061;28;21200;-79
2021/08/25 03:11:13;;;;;;;16.10;14.40;;;14.40;99.90;;;14.21;95.17;98657.84;5060695;28;20622;-79
2021/08/25 03:13:43;;;;;;;16.03;14.33;;;14.30;99.90;;;14.18;94.99;98658.09;5061244;28;21229;-79
2021/08/25 03:16:11;;;;;;;16.10;13.70;;;14.30;99.90;;;14.13;94.85;98649.72;5065265;28;20600;-79
2021/08/25 03:18:40;;;;;;;19.00;13.97;;;14.30;99.90;;;14.09;95.09;98649.19;5062617;28;20629;-79
2021/08/25 03:21:09;;;;;;;16.13;13.97;;;14.20;99.90;;;14.10;95.04;98659.59;5067204;28;20975;-79
2021/08/25 03:23:38;;;;;;;18.97;15.33;;;14.20;99.90;;;14.06;95.09;98658.16;5083199;28;20633;-79
2021/08/25 03:26:06;;;;;;;18.10;13.77;;;14.20;99.90;;;14.05;95.38;98651.22;5066613;28;21168;-79
2021/08/25 03:28:35;;;;;;;16.60;14.03;;;14.20;99.90;;;14.07;95.41;98653.72;5065429;28;20620;-79
2021/08/25 03:31:08;;;;;;;16.60;14.00;;;14.20;99.90;;;14.04;95.15;98648.69;5044205;28;20970;-79
2021/08/25 03:33:36;;;;;;;17.17;14.10;;;14.20;99.90;;;14.09;95.33;98654.44;5063991;28;20608;-79
2021/08/25 03:36:05;;;;;;;17.17;14.70;;;14.20;99.90;;;14.06;95.12;98652.91;5080376;28;21149;-79
2021/08/25 03:38:34;;;;;;;14.90;13.30;;;14.20;99.90;;;14.04;95.41;98648.69;5082580;28;20627;-79
2021/08/25 03:41:03;;;;;;;15.93;14.23;;;14.20;99.90;;;14.02;95.47;98648.78;5050168;28;21159;-79
2021/08/25 03:43:32;;;;;;;16.27;14.03;;;14.20;99.90;;;14.02;95.72;98648.78;5065578;28;20695;-79
2021/08/25 03:46:00;;;;;;;16.53;14.60;;;14.10;99.90;;;14.00;95.75;98639.38;5044309;28;21177;-79
2021/08/25 03:48:30;;;;;;;20.50;13.57;;;14.10;99.90;;;14.04;95.50;98638.19;5065834;28;20717;-79
2021/08/25 03:50:59;;;;;;;15.27;13.67;;;14.10;99.90;;;14.00;95.06;98648.06;5066230;28;20724;-79
2021/08/25 03:53:27;;;;;;;16.43;13.73;;;14.10;99.90;;;13.99;95.54;98646.41;5068340;28;20616;-79
2021/08/25 03:55:56;;;;;;;17.87;15.13;;;14.10;99.90;;;13.97;95.25;98645.69;5061551;28;21168;-79
2021/08/25 03:58:25;;;;;;;18.73;13.80;;;14.10;99.90;;;13.97;94.94;98645.69;5069092;28;20613;-79
2021/08/25 04:00:53;;;;;;;18.00;15.13;;;14.10;99.90;;;13.94;95.20;98640.66;5061309;28;21293;-79
2021/08/25 04:03:22;;;;;;;19.23;14.70;;;14.10;99.90;;;13.95;95.35;98631.00;5067749;28;21141;-79
2021/08/25 04:05:52;;;;;;;19.83;14.23;;;14.10;99.90;;;13.93;95.31;98636.34;5064893;28;20944;-79
2021/08/25 04:08:21;;;;;;;16.60;14.23;;;14.10;99.90;;;13.91;95.32;98635.63;5067662;28;21225;-79
2021/08/25 04:10:49;;;;;;;17.00;14.43;;;14.00;99.90;;;13.89;95.34;98640.16;5062127;28;20662;-79
2021/08/25 04:13:18;;;;;;;17.90;15.10;;;14.00;99.90;;;13.88;95.15;98638.47;5066364;28;20604;-79
2021/08/25 04:15:46;;;;;;;16.03;13.90;;;14.00;99.90;;;13.88;95.49;98638.47;5087014;28;20607;-79
2021/08/25 04:18:15;;;;;;;16.87;13.43;;;14.00;99.90;;;13.89;95.26;98634.06;5069072;28;20724;-79
2021/08/25 04:20:44;;;;;;;17.50;14.30;;;14.00;99.90;;;13.89;95.46;98634.91;5062207;28;20653;-79
2021/08/25 04:23:14;;;;;;;18.83;15.87;;;14.00;99.90;;;13.90;95.63;98633.94;5061786;28;20679;-79
2021/08/25 04:25:42;;;;;;;16.57;14.20;;;14.00;99.90;;;13.91;95.36;98635.63;5065528;28;20661;-79
2021/08/25 04:28:12;;;;;;;17.17;14.67;;;14.10;99.90;;;13.91;95.46;98637.44;5063561;28;20622;-79
2021/08/25 04:30:40;;;;;;;17.90;14.90;;;14.00;99.90;;;13.91;95.21;98643.50;5068083;28;20765;-79
2021/08/25 04:33:09;;;;;;;17.47;14.70;;;14.00;99.90;;;13.87;94.73;98642.03;5064413;28;20608;-79
2021/08/25 04:35:37;;;;;;;19.47;14.73;;;14.00;99.90;;;13.89;95.26;98641.94;5068644;28;20625;-79
2021/08/25 04:38:06;;;;;;;14.87;13.27;;;14.00;99.90;;;13.90;95.24;98646.22;5066271;28;20604;-79
2021/08/25 04:40:36;;;;;;;17.43;14.00;;;14.00;99.90;;;13.89;95.26;98640.16;5063961;28;20636;-79
2021/08/25 04:43:05;;;;;;;15.83;14.10;;;14.00;99.90;;;13.92;95.05;98639.94;5065018;28;20634;-79
2021/08/25 04:45:33;;;;;;;17.70;15.33;;;14.00;99.90;;;13.90;95.07;98631.31;5065270;28;20655;-79
2021/08/25 04:48:02;;;;;;;17.40;13.80;;;14.00;99.90;;;13.91;94.93;98637.44;5066580;28;20964;-79
2021/08/25 04:50:32;;;;;;;16.67;14.17;;;14.00;99.90;;;13.88;95.17;98638.47;5067404;28;20681;-79
2021/08/25 04:53:00;;;;;;;16.27;13.70;;;14.00;99.90;;;13.91;95.04;98637.44;5074073;28;20653;-79
2021/08/25 04:55:29;;;;;;;16.10;14.33;;;14.00;99.90;;;13.91;95.02;98642.66;5082313;28;20649;-79
2021/08/25 04:57:59;;;;;;;20.20;14.93;;;14.00;99.90;;;13.91;94.80;98638.25;5084826;28;21165;-79
2021/08/25 05:00:28;;;;;;;17.30;13.90;;;14.00;99.90;;;13.93;95.45;98635.53;5068248;28;20712;-79
2021/08/25 05:02:57;;;;;;;15.63;13.70;;;14.00;99.90;;;13.97;95.05;98642.22;5069219;28;20620;-79
2021/08/25 05:05:26;;;;;;;17.63;15.20;;;14.10;99.90;;;13.98;94.66;98638.63;5067305;28;20630;-79
2021/08/25 05:07:54;;;;;;;16.10;13.53;;;14.10;99.90;;;13.99;94.72;98649.00;5065798;28;20598;-79
2021/08/25 05:10:23;;;;;;;18.23;14.67;;;14.10;99.90;;;14.07;94.92;98653.72;5062419;28;20999;-79
2021/08/25 05:12:52;;;;;;;21.07;12.90;;;14.10;99.90;;;14.13;94.54;98645.41;5085742;28;20659;-79
2021/08/25 05:15:22;;;;;;;16.20;14.40;;;14.20;99.90;;;14.22;94.31;98648.19;5064383;28;20636;-79
2021/08/25 05:17:50;;;;;;;17.27;14.50;;;14.30;99.90;;;14.32;93.36;98642.16;5066851;28;21271;-79
2021/08/25 05:20:19;;;;;;;15.47;12.67;;;14.40;99.90;;;14.45;94.03;98650.78;5065904;28;20684;-79
2021/08/25 05:22:48;;;;;;;16.47;13.70;;;14.50;99.90;;;14.61;93.58;98641.66;5068210;28;20614;-79
2021/08/25 05:25:17;;;;;;;16.40;13.90;;;14.60;99.90;;;14.79;92.32;98649.91;5049085;28;20620;-79
2021/08/25 05:27:46;;;;;;;16.33;14.00;;;14.80;99.90;;;14.95;91.97;98643.38;5069265;28;20624;-79
2021/08/25 05:30:15;;;;;;;14.73;13.13;;;14.90;99.90;;;15.15;90.99;98663.69;5069244;28;20667;-79
2021/08/25 05:32:51;;;;;;;15.20;13.60;;;15.10;99.90;;;15.35;91.14;98660.38;5070787;28;20730;-79
2021/08/25 05:35:20;;;;;;;14.83;13.03;;;15.30;99.90;;;15.60;91.27;98660.94;5069143;28;21271;-79
2021/08/25 05:37:50;;;;;;;14.17;12.67;;;15.50;99.90;;;15.83;88.89;98659.94;5066955;28;20650;-79
2021/08/25 05:40:19;;;;;;;13.97;12.33;;;15.70;99.90;;;15.98;88.83;98664.81;5066726;28;20622;-79
2021/08/25 05:42:48;;;;;;;12.73;11.43;;;15.90;99.90;;;16.17;86.98;98662.38;5065033;28;20639;-79
2021/08/25 05:45:17;;;;;;;13.67;12.23;;;16.10;99.90;;;16.37;88.07;98659.78;5053407;28;20643;-79
2021/08/25 05:47:47;;;;;;;13.97;12.57;;;16.30;99.90;;;16.56;86.00;98655.53;5066241;28;20724;-79
2021/08/25 05:50:16;;;;;;;15.03;12.53;;;16.50;99.90;;;16.73;86.57;98646.22;5048890;28;20659;-79
2021/08/25 05:52:45;;;;;;;12.03;10.73;;;16.60;99.90;;;16.91;85.50;98657.84;5064552;28;20633;-79
2021/08/25 05:55:13;;;;;;;13.70;12.13;;;16.80;99.90;;;17.09;83.82;98652.69;5084366;28;20654;-79
2021/08/25 05:57:45;;;;;;;12.47;11.17;;;17.00;99.90;;;17.27;83.13;98652.94;5083147;28;20983;-79
2021/08/25 06:00:16;;;;;;;15.13;12.40;;;17.10;99.90;;;17.47;82.45;98660.81;5066196;28;20630;-79
2021/08/25 06:02:52;;;;;;;13.10;11.63;;;17.30;99.90;;;17.71;82.21;98663.91;5068569;28;20615;-79
2021/08/25 06:05:22;;;;;;;16.80;12.93;;;17.60;99.90;;;17.92;81.06;98656.75;5081675;28;21233;-79
2021/08/25 06:07:50;;;;;;;13.60;12.20;;;17.80;99.90;;;18.11;80.81;98663.72;5069744;28;20627;-79
2021/08/25 06:10:19;;;;;;;12.53;11.23;;;18.00;99.30;;;18.26;79.80;98657.09;5063703;28;20727;-79
2021/08/25 06:12:47;;;;;;;12.33;11.13;;;18.10;98.60;;;18.49;78.06;98658.50;5069872;28;20630;-79
2021/08/25 06:15:16;;;;;;;13.50;11.30;;;18.40;97.80;;;18.57;78.12;98656.00;5067371;28;20646;-79
2021/08/25 06:17:45;;;;;;;13.37;11.97;;;18.50;97.20;;;18.67;76.93;98662.97;5071139;28;21184;-79
2021/08/25 06:20:16;;;;;;;13.10;11.00;;;18.60;96.50;;;18.73;76.44;98651.78;5082332;28;20751;-79
2021/08/25 06:22:44;;;;;;;13.50;11.80;;;18.70;96.30;;;18.76;77.09;98664.72;5053077;28;20653;-79
2021/08/25 06:25:13;;;;;;;13.47;12.07;;;18.70;96.10;;;18.81;76.84;98669.59;5068884;28;20615;-79
2021/08/25 06:27:42;;;;;;;11.37;10.27;;;18.70;95.50;;;18.86;77.10;98668.22;5053128;28;20671;-79
2021/08/25 06:30:11;;;;;;;13.60;10.03;;;18.80;95.70;;;18.96;76.03;98667.22;5068038;28;20716;-79
2021/08/25 06:32:40;;;;;;;12.27;11.07;;;18.80;95.60;;;19.18;77.24;98666.91;5069428;28;20645;-79
2021/08/25 06:35:09;;;;;;;12.67;10.73;;;19.00;96.20;;;19.34;75.14;98666.31;5065143;28;20643;-79
2021/08/25 06:37:41;;;;;;;11.57;10.43;;;19.20;95.20;;;19.50;77.87;98651.47;5066970;28;20732;-79
2021/08/25 06:40:11;;;;;;;11.83;9.50;;;19.30;96.50;;;19.74;76.35;98652.63;5069557;28;20621;-79
2021/08/25 06:42:42;;;;;;;12.33;10.10;;;19.50;95.40;;;19.99;74.42;98654.59;5048114;28;20609;-79
2021/08/25 06:45:12;;;;;;;11.20;9.60;;;19.80;95.20;;;20.26;74.98;98646.59;5067411;28;20672;-79
2021/08/25 06:47:41;;;;;;;10.93;9.83;;;20.00;94.60;;;20.46;75.86;98644.50;5082095;28;20628;-79
2021/08/25 06:50:10;;;;;;;13.60;10.50;;;20.20;94.80;;;20.57;74.06;98641.59;5080250;28;21262;-79
2021/08/25 06:52:40;;;;;;;10.60;9.50;;;20.30;94.10;;;20.59;72.24;98636.97;5080984;28;20659;-79
2021/08/25 06:55:10;;;;;;;11.23;10.17;;;20.40;92.80;;;20.57;71.95;98641.59;5060946;28;20626;-79
2021/08/25 06:57:45;;;;;;;11.30;10.20;;;20.40;92.90;;;20.71;74.64;98641.06;5047527;28;20634;-79
2021/08/25 07:00:18;;;;;;;11.20;8.90;;;20.50;93.80;;;20.91;71.31;98643.41;5052936;28;20732;-79
2021/08/25 07:02:46;;;;;;;9.50;8.50;;;20.70;92.60;;;21.01;70.95;98638.00;5067343;28;20682;-79
2021/08/25 07:05:15;;;;;;;12.20;9.07;;;20.80;92.10;;;21.09;71.53;98641.50;5049038;28;20639;-79
2021/08/25 07:07:47;;;;;;;10.60;9.30;;;20.90;92.10;;;21.19;68.99;98638.78;5077560;28;20632;-79
2021/08/25 07:10:16;;;;;;;9.53;8.63;;;20.90;91.30;;;21.30;71.10;98652.59;5063271;28;20668;-79
2021/08/25 07:12:45;;;;;;;9.10;8.20;;;21.00;91.50;;;21.43;69.63;98643.22;5070563;28;20767;-79
2021/08/25 07:15:16;;;;;;;11.10;9.13;;;21.20;90.80;;;21.52;69.12;98639.63;5066472;28;20704;-79
2021/08/25 07:17:46;;;;;;;10.00;9.00;;;21.30;90.30;;;21.62;69.72;98637.72;5068950;28;20679;-79
2021/08/25 07:20:15;;;;;;;9.50;8.10;;;21.40;90.50;;;21.82;70.47;98634.63;5080140;28;20702;-79
2021/08/25 07:22:45;;;;;;;8.83;8.00;;;21.60;91.00;;;21.96;67.14;98638.47;5066663;28;20608;-79
2021/08/25 07:25:14;;;;;;;9.57;8.67;;;21.70;87.70;;;21.98;68.95;98641.81;5081000;28;20624;-79
2021/08/25 07:27:43;;;;;;;10.50;8.70;;;21.80;90.00;;;21.99;69.05;98638.97;5066191;28;21162;-79
2021/08/25 07:30:12;;;;;;;9.77;8.60;;;21.80;88.90;;;22.03;67.96;98645.66;5066841;28;21107;-79
2021/08/25 07:32:42;;;;;;;9.23;8.33;;;21.80;88.20;;;22.22;67.51;98641.91;5079598;28;20651;-79
2021/08/25 07:35:12;;;;;;;9.00;8.10;;;21.90;89.40;;;22.27;67.29;98640.44;5067463;28;20666;-79
2021/08/25 07:37:41;;;;;;;9.70;8.57;;;22.00;86.20;;;22.40;67.07;98638.94;5067979;28;20941;-79
2021/08/25 07:40:12;;;;;;;9.00;8.20;;;22.10;87.80;;;22.49;67.72;98635.31;5080366;28;20620;-79
2021/08/25 07:42:41;;;;;;;8.53;7.73;;;22.20;87.40;;;22.53;65.43;98623.31;5047768;28;20661;-79
2021/08/25 07:45:11;;;;;;;10.00;8.33;;;22.30;84.80;;;22.55;65.31;98625.81;5068930;28;20604;-79
2021/08/25 07:47:40;;;;;;;8.67;7.80;;;22.30;83.70;;;22.55;64.48;98634.66;5047635;28;20695;-79
2021/08/25 07:50:10;;;;;;;8.50;7.70;;;22.30;82.60;;;22.42;64.18;98625.50;5064580;28;20720;-79
2021/08/25 07:52:38;;;;;;;7.70;6.90;;;22.20;81.80;;;22.36;66.28;98626.16;5061397;28;20659;-79
2021/08/25 07:55:08;;;;;;;8.90;7.60;;;22.10;84.00;;;22.39;65.23;98626.66;5061315;28;20614;-79
2021/08/25 07:57:39;;;;;;;7.90;7.10;;;22.10;82.10;;;22.48;65.17;98633.63;5062766;28;20639;-79
2021/08/25 08:00:09;;;;;;;8.40;7.37;;;22.30;82.70;;;22.60;66.36;98627.00;5086571;28;20661;-79
2021/08/25 08:02:38;;;;;;;8.83;7.47;;;22.40;84.00;;;22.56;65.05;98623.00;5083628;28;20607;-79
2021/08/25 08:05:08;;;;;;;8.07;7.30;;;22.30;82.00;;;22.50;65.43;98628.97;5077113;28;20641;-79
2021/08/25 08:07:38;;;;;;;7.77;7.07;;;22.40;81.40;;;22.44;64.90;98624.31;5067457;28;20628;-79
2021/08/25 08:10:11;;;;;;;7.63;6.83;;;22.20;82.20;;;22.43;65.82;98635.13;5065282;28;20694;-79
2021/08/25 08:12:41;;;;;;;8.20;7.40;;;22.20;81.70;;;22.49;65.43;98632.66;5063542;28;20665;-79
2021/08/25 08:15:15;;;;;;;9.83;7.77;;;22.30;81.80;;;22.31;65.08;98628.44;5066036;28;21010;-79
2021/08/25 08:17:45;;;;;;;7.77;6.97;;;22.10;81.10;;;22.11;65.36;98629.72;5064993;28;20740;-79
2021/08/25 08:20:16;;;;;;;8.87;7.23;;;21.80;80.90;;;22.11;65.87;98620.91;5063066;28;20645;-79
2021/08/25 08:22:44;;;;;;;7.77;6.70;;;21.80;81.30;;;22.27;65.44;98635.09;5068754;28;20661;-79
2021/08/25 08:25:14;;;;;;;6.70;6.10;;;22.00;81.70;;;22.21;66.52;98625.13;5069199;28;20718;-79
2021/08/25 08:27:44;;;;;;;7.47;6.77;;;22.00;81.80;;;22.39;66.23;98631.97;5070899;28;20704;-79
2021/08/25 08:30:13;;;;;;;7.13;6.40;;;22.10;82.70;;;22.45;65.02;98625.97;5070768;28;20648;-79
2021/08/25 08:32:42;;;;;;;6.73;6.03;;;22.20;80.50;;;22.40;65.50;98624.81;5053282;28;20662;-79
2021/08/25 08:35:10;;;;;;;6.97;6.30;;;22.20;80.00;;;22.44;65.22;98620.81;5068579;28;21159;-79
2021/08/25 08:37:40;;;;;;;7.00;6.00;;;22.30;79.90;;;22.71;68.07;98620.50;5068916;28;20625;-79
2021/08/25 08:40:10;;;;;;;7.03;5.57;;;22.40;84.30;;;22.77;64.69;98618.00;5069744;28;20710;-79
2021/08/25 08:42:39;;;;;;;7.70;6.93;;;22.60;80.10;;;22.75;63.79;98612.84;5052261;28;20719;-79
2021/08/25 08:45:11;;;;;;;7.40;5.80;;;22.50;77.70;;;22.73;65.32;98606.03;5052756;28;20724;-79
2021/08/25 08:47:40;;;;;;;6.67;6.07;;;22.50;80.40;;;22.86;64.01;98612.50;5066334;28;20618;-79
2021/08/25 08:50:10;;;;;;;8.17;5.60;;;22.60;78.40;;;22.93;63.81;98605.56;5051765;28;20674;-79
2021/08/25 08:52:40;;;;;;;6.70;5.90;;;22.70;78.50;;;22.94;63.78;98607.22;5065490;28;20783;-79
2021/08/25 08:55:10;;;;;;;6.00;5.37;;;22.70;77.90;;;22.97;63.43;98612.22;5071127;28;20615;-79
2021/08/25 08:57:38;;;;;;;7.70;6.40;;;22.70;77.90;;;23.09;65.33;98613.50;5071919;28;20622;-79
2021/08/25 09:00:11;;;;;;;7.70;5.93;;;22.80;79.70;;;23.26;63.67;98609.81;5070140;28;20748;-79
2021/08/25 09:02:42;;;;;;;6.60;5.70;;;23.00;78.90;;;22.98;61.88;98618.34;5071539;28;20606;-79
2021/08/25 09:05:20;;;;;;;6.20;5.60;;;22.80;75.50;;;23.00;63.47;98611.03;5071636;28;20615;-79
2021/08/25 09:07:52;;;;;;;6.20;5.60;;;22.80;76.80;;;23.05;64.62;98614.00;5073993;28;21187;-79
2021/08/25 09:10:27;;;;;;;7.37;6.20;;;22.90;77.90;;;23.18;64.21;98614.31;5065239;28;20717;-80
2021/08/25 09:12:58;;;;;;;8.90;6.90;;;23.00;78.60;;;22.99;63.55;98614.72;5071988;28;20654;-79
2021/08/25 09:15:31;;;;;;;7.43;6.07;;;22.70;76.00;;;23.08;63.44;98613.66;5083866;28;21215;-79
2021/08/25 09:18:03;;;;;;;7.50;6.70;;;22.80;78.10;;;23.26;62.97;98618.63;5070436;28;20637;-79
2021/08/25 09:20:35;;;;;;;8.30;6.97;;;23.00;77.80;;;23.24;63.54;98622.44;5073036;28;20655;-79
2021/08/25 09:23:12;;;;;;;8.03;6.87;;;23.00;77.30;;;23.08;64.13;98613.66;5067026;28;20989;-79
2021/08/25 09:25:42;;;;;;;7.80;7.00;;;22.90;76.70;;;23.03;63.70;98611.50;5051985;28;20649;-79
2021/08/25 09:28:13;;;;;;;7.50;6.80;;;22.80;76.80;;;23.09;63.24;98612.66;5082537;28;21093;-79
2021/08/25 09:31:05;;;;;;;7.87;6.67;;;22.80;75.80;;;23.02;62.74;98619.66;5071776;28;20636;-79
2021/08/25 09:33:36;;;;;;;7.20;6.50;;;22.70;74.40;;;23.05;62.78;98608.69;5063658;28;20761;-79
2021/08/25 09:36:07;;;;;;;9.60;6.43;;;22.80;75.60;;;23.33;66.61;98608.97;5068238;28;20941;-79
2021/08/25 09:38:38;;;;;;;7.03;6.33;;;23.00;81.30;;;23.16;62.47;98609.16;5070226;28;20656;-79
2021/08/25 09:41:09;;;;;;;8.50;6.60;;;22.90;75.90;;;22.90;61.51;98605.84;5068648;28;20621;-79
2021/08/25 09:43:41;;;;;;;7.20;6.30;;;22.60;73.10;;;22.78;63.09;98596.56;5070429;28;20628;-79
2021/08/25 09:46:14;;;;;;;6.80;6.10;;;22.60;74.80;;;22.86;61.86;98599.19;5069181;28;20723;-79
2021/08/25 09:48:46;;;;;;;7.37;6.40;;;22.60;73.40;;;23.06;63.94;98599.69;5069396;28;21153;-79
2021/08/25 09:51:18;;;;;;;7.83;6.77;;;22.80;75.80;;;23.27;64.13;98609.66;5069766;28;21171;-80
2021/08/25 09:53:49;;;;;;;7.20;6.30;;;23.00;77.20;;;23.34;62.12;98599.13;5071236;28;20646;-80
2021/08/25 09:56:32;;;;;;;7.10;6.40;;;23.00;74.00;;;23.45;62.33;98601.41;5068530;28;20635;-79
2021/08/25 09:59:03;;;;;;;7.03;5.90;;;23.20;75.00;;;23.63;61.71;98594.03;5065249;28;21159;-79
2021/08/25 10:01:33;;;;;;;6.60;6.00;;;23.30;74.30;;;23.64;62.21;98603.72;5071504;28;20662;-80
2021/08/25 10:04:06;;;;;;;7.37;6.27;;;23.40;73.40;;;23.69;61.07;98597.69;5064691;28;20627;-79
2021/08/25 10:06:39;;;;;;;7.30;6.37;;;23.40;73.10;;;23.53;61.13;98594.25;5067906;28;20713;-79
2021/08/25 10:09:08;;;;;;;7.93;6.43;;;23.20;71.20;;;23.52;61.12;98587.25;5068876;28;21110;-79
2021/08/25 10:11:40;;;;;;;6.87;6.27;;;23.20;71.70;;;23.51;62.52;98585.56;5066369;28;20655;-79
2021/08/25 10:14:11;;;;;;;8.30;6.13;;;23.10;74.10;;;23.65;60.88;98586.72;5081584;28;20800;-79
2021/08/25 10:16:44;;;;;;;7.20;6.50;;;23.30;71.60;;;23.52;61.35;98581.09;5062048;28;21258;-79
2021/08/25 10:19:35;;;;;;;6.83;5.93;;;23.10;71.60;;;23.45;61.19;98577.44;5070413;28;20673;-80
2021/08/25 10:22:24;;;;;;;6.63;5.60;;;23.20;72.10;;;23.21;60.53;98570.38;5085693;28;20663;-80